Helliar — 2EPP5 — position and weather

sailwx.info

Track history (hours):
 
Tides and Currents Weather Stations Pressure Air Temp Water Temp Dewpoint Dewpoint Depression Visibility Wind Speed Wind Dir Waves Ship Positions

Helliar

Last reported at 2014-Oct-17 03:30 UTC. Time now 2014-Oct-21 03:55 UTC.
Position N 53°31' W 003°07'.

Length 122 m; draft 4.9 m.

Type: Cargo ship. MMSI: 235087119.

Date/timePositionNaut miles runAvg speedWind from/ knotsBaromVisibWave heightAir tempDewpointWater temp
2014-Oct-17 03:30N 53°31' W 003°07'9 9.2
2014-Oct-17 02:34N 53°31' W 003°22'3 1.1
2014-Oct-16 23:31N 53°29' W 003°27'0 0.0
2014-Oct-16 22:25N 53°29' W 003°27'0 0.0
2014-Oct-16 21:25N 53°29' W 003°27'0 0.0
2014-Oct-16 19:31N 53°29' W 003°27'0 0.0
2014-Oct-16 18:13N 53°29' W 003°27'0 0.0
2014-Oct-16 17:22N 53°29' W 003°27'0 0.0
2014-Oct-16 16:19N 53°29' W 003°27'0 0.0
2014-Oct-16 14:16N 53°29' W 003°27'0 0.0
2014-Oct-16 12:19N 53°29' W 003°27'0 0.0
2014-Oct-16 11:07N 53°29' W 003°27'0 0.0
2014-Oct-16 10:31N 53°29' W 003°27'0 0.0
2014-Oct-16 09:31N 53°29' W 003°27'0 0.0
2014-Oct-16 07:31N 53°29' W 003°27'0 0.0
2014-Oct-16 06:25N 53°29' W 003°27'0 0.0
2014-Oct-16 05:19N 53°29' W 003°27'0 0.0
2014-Oct-16 04:31N 53°29' W 003°27'0 0.0
2014-Oct-16 03:31N 53°29' W 003°27'0 0.0
2014-Oct-16 02:13N 53°29' W 003°27'0 0.0
2014-Oct-16 01:31N 53°29' W 003°27'0 0.0
2014-Oct-16 00:31N 53°29' W 003°27'0 0.0
2014-Oct-15 23:31N 53°29' W 003°27'0 0.0
2014-Oct-15 22:22N 53°29' W 003°27'0 0.0
2014-Oct-15 21:19N 53°29' W 003°27'0 0.0
2014-Oct-15 20:22N 53°29' W 003°27'0 0.0
2014-Oct-15 19:25N 53°29' W 003°27'0 0.0
2014-Oct-15 18:31N 53°29' W 003°27'0 0.0
2014-Oct-15 17:31N 53°29' W 003°27'0 0.0
2014-Oct-15 16:31N 53°29' W 003°27'0 0.0
2014-Oct-15 14:31N 53°29' W 003°27'0 0.0
2014-Oct-15 13:31N 53°29' W 003°27'0 0.0
2014-Oct-15 12:33N 53°29' W 003°27'9 9.3
2014-Oct-15 11:33N 53°31' W 003°43'10 9.8
2014-Oct-15 10:33N 53°36' W 003°57'10 9.6
2014-Oct-15 09:34N 53°41' W 004°11'10 9.2
2014-Oct-15 08:28N 53°47' W 004°25'34 8.5
2014-Oct-15 04:31N 54°11' W 005°04'9 9.5
2014-Oct-15 03:33N 54°20' W 005°11'10 9.6
2014-Oct-15 02:34N 54°29' W 005°17'1010.3
2014-Oct-15 01:33N 54°38' W 005°24'1110.9
2014-Oct-15 00:33N 54°48' W 005°31'1110.7
2014-Oct-14 23:34N 54°58' W 005°39'2110.5
2014-Oct-14 21:33N 55°15' W 005°59'9 9.1
2014-Oct-14 20:33N 55°21' W 006°11'8 8.4
2014-Oct-14 19:33N 55°27' W 006°23'8 8.1
2014-Oct-14 18:33N 55°33' W 006°31'8 7.6
2014-Oct-14 17:33N 55°39' W 006°39'8 8.1
2014-Oct-14 16:33N 55°46' W 006°47'10 9.7
2014-Oct-14 15:33N 55°54' W 006°57'197 9.4
2014-Oct-13 18:34N 58°52' W 004°21'1111.4
2014-Oct-13 17:34N 58°58' W 004°02'1111.1
2014-Oct-13 16:34N 59°03' W 003°43'1110.9
2014-Oct-13 15:33N 59°08' W 003°24'1111.0
2014-Oct-13 14:33N 59°13' W 003°04'9 9.0
2014-Oct-13 13:33N 59°08' W 002°49'8 7.6
2014-Oct-13 12:33N 59°01' W 002°51'4 3.9
2014-Oct-13 11:31N 58°60' W 002°58'0 0.0
2014-Oct-13 10:31N 58°60' W 002°58'0 0.0
2014-Oct-13 09:31N 58°60' W 002°58'0 0.0
2014-Oct-13 08:31N 58°60' W 002°58'0 0.0
2014-Oct-13 07:31N 58°60' W 002°58'0 0.0
2014-Oct-13 06:31N 58°60' W 002°58'0 0.0
2014-Oct-13 05:28N 58°60' W 002°58'0 0.0
2014-Oct-13 04:31N 58°60' W 002°58'0 0.0
2014-Oct-13 03:31N 58°60' W 002°58'0 0.0
2014-Oct-13 02:28N 58°60' W 002°58'0 0.0
2014-Oct-13 01:33N 58°60' W 002°58'0 0.0
2014-Oct-13 00:33N 58°60' W 002°58'0 0.0
2014-Oct-12 23:33N 58°60' W 002°58'2 2.2
2014-Oct-12 22:33N 59°01' W 002°55'8213.6
2014-Oct-12 16:33N 57°47' W 001°50'1313.0
2014-Oct-12 15:33N 57°34' W 001°42'1212.4
2014-Oct-12 14:33N 57°22' W 001°46'5 0.6
2014-Oct-12 05:30N 57°18' W 001°51'1313.4
2014-Oct-12 04:33N 57°29' W 001°40'1313.2
2014-Oct-12 03:33N 57°42' W 001°33'86 3.6
2014-Oct-11 03:33N 59°02' W 002°31'1212.2
2014-Oct-11 02:33N 59°01' W 002°55'2 2.2
2014-Oct-11 01:33N 58°60' W 002°58'8 8.3
2014-Oct-11 00:34N 58°59' W 002°42'7213.8
2014-Oct-10 19:22N 57°52' W 001°54'1315.8
2014-Oct-10 18:34N 57°40' W 001°46'1616.1
2014-Oct-10 17:34N 57°24' W 001°45'10 0.8
2014-Oct-10 05:30N 57°15' W 001°53'1010.5
2014-Oct-10 04:33N 57°24' W 001°44'1211.7
2014-Oct-10 03:33N 57°35' W 001°40'1313.0
2014-Oct-10 02:33N 57°48' W 001°37'6 0.2
2014-Oct-09 00:34N 57°43' W 001°37'1212.0
2014-Oct-08 23:34N 57°31' W 001°40'1212.0
2014-Oct-08 22:33N 57°19' W 001°48'1 0.2
2014-Oct-08 15:34N 57°20' W 001°49'1313.4
2014-Oct-08 14:33N 57°34' W 001°44'1514.7
2014-Oct-08 13:33N 57°48' W 001°51'7515.0
2014-Oct-08 08:33N 58°59' W 002°38'1110.6
2014-Oct-08 07:32N 58°60' W 002°58'0 0.0
2014-Oct-08 06:32N 58°60' W 002°58'0 0.0
2014-Oct-08 05:32N 58°60' W 002°58'0 0.0
2014-Oct-08 04:34N 58°60' W 002°58'1 0.8
2014-Oct-08 03:34N 59°01' W 002°58'0 0.1
2014-Oct-08 02:31N 59°01' W 002°58'0 0.0
2014-Oct-08 01:31N 59°01' W 002°58'0 0.0
2014-Oct-08 00:34N 59°01' W 002°58'0 0.0
2014-Oct-07 23:31N 59°01' W 002°58'0 0.0
2014-Oct-07 22:31N 59°01' W 002°58'0 0.0
2014-Oct-07 21:31N 59°01' W 002°58'0 0.0
2014-Oct-07 20:31N 59°01' W 002°58'0 0.0
2014-Oct-07 19:31N 59°01' W 002°58'0 0.0
2014-Oct-07 18:31N 59°01' W 002°58'0 0.0
2014-Oct-07 17:33N 59°01' W 002°58'0 0.0
2014-Oct-07 16:33N 59°01' W 002°58'0 0.0
2014-Oct-07 15:33N 59°01' W 002°58'0 0.0
2014-Oct-07 14:33N 59°01' W 002°58'0 0.0
2014-Oct-07 13:33N 59°01' W 002°58'0 0.0
2014-Oct-07 12:33N 59°01' W 002°58'1 0.8
2014-Oct-07 11:34N 58°60' W 002°58'0 0.0
2014-Oct-07 10:31N 58°60' W 002°58'0 0.0
2014-Oct-07 09:31N 58°60' W 002°58'0 0.0
2014-Oct-07 08:34N 58°60' W 002°58'0 0.0
2014-Oct-07 07:31N 58°60' W 002°58'0 0.0
2014-Oct-07 06:34N 58°60' W 002°58'0 0.0
2014-Oct-07 05:34N 58°60' W 002°58'0 0.0
2014-Oct-07 04:34N 58°60' W 002°58'0 0.0
2014-Oct-07 03:34N 58°60' W 002°58'  
Track history (hours):
 
Tides and Currents Weather Stations Pressure Air Temp Water Temp Dewpoint Dewpoint Depression Visibility Wind Speed Wind Dir Waves Ship Positions

Helliar

Last reported at 2014-Oct-17 03:30 UTC. Time now 2014-Oct-21 03:55 UTC.
Position N 53°31' W 003°07'.

Length 122 m; draft 4.9 m.

Type: Cargo ship. MMSI: 235087119.

Date/timePositionNaut miles runAvg speedWind from/ knotsBaromVisibWave heightAir tempDewpointWater temp
2014-Oct-17 03:30N 53°31' W 003°07'9 9.2
2014-Oct-17 02:34N 53°31' W 003°22'3 1.1
2014-Oct-16 23:31N 53°29' W 003°27'0 0.0
2014-Oct-16 22:25N 53°29' W 003°27'0 0.0
2014-Oct-16 21:25N 53°29' W 003°27'0 0.0
2014-Oct-16 19:31N 53°29' W 003°27'0 0.0
2014-Oct-16 18:13N 53°29' W 003°27'0 0.0
2014-Oct-16 17:22N 53°29' W 003°27'0 0.0
2014-Oct-16 16:19N 53°29' W 003°27'0 0.0
2014-Oct-16 14:16N 53°29' W 003°27'0 0.0
2014-Oct-16 12:19N 53°29' W 003°27'0 0.0
2014-Oct-16 11:07N 53°29' W 003°27'0 0.0
2014-Oct-16 10:31N 53°29' W 003°27'0 0.0
2014-Oct-16 09:31N 53°29' W 003°27'0 0.0
2014-Oct-16 07:31N 53°29' W 003°27'0 0.0
2014-Oct-16 06:25N 53°29' W 003°27'0 0.0
2014-Oct-16 05:19N 53°29' W 003°27'0 0.0
2014-Oct-16 04:31N 53°29' W 003°27'0 0.0
2014-Oct-16 03:31N 53°29' W 003°27'0 0.0
2014-Oct-16 02:13N 53°29' W 003°27'0 0.0
2014-Oct-16 01:31N 53°29' W 003°27'0 0.0
2014-Oct-16 00:31N 53°29' W 003°27'0 0.0
2014-Oct-15 23:31N 53°29' W 003°27'0 0.0
2014-Oct-15 22:22N 53°29' W 003°27'0 0.0
2014-Oct-15 21:19N 53°29' W 003°27'0 0.0
2014-Oct-15 20:22N 53°29' W 003°27'0 0.0
2014-Oct-15 19:25N 53°29' W 003°27'0 0.0
2014-Oct-15 18:31N 53°29' W 003°27'0 0.0
2014-Oct-15 17:31N 53°29' W 003°27'0 0.0
2014-Oct-15 16:31N 53°29' W 003°27'0 0.0
2014-Oct-15 14:31N 53°29' W 003°27'0 0.0
2014-Oct-15 13:31N 53°29' W 003°27'0 0.0
2014-Oct-15 12:33N 53°29' W 003°27'9 9.3
2014-Oct-15 11:33N 53°31' W 003°43'10 9.8
2014-Oct-15 10:33N 53°36' W 003°57'10 9.6
2014-Oct-15 09:34N 53°41' W 004°11'10 9.2
2014-Oct-15 08:28N 53°47' W 004°25'34 8.5
2014-Oct-15 04:31N 54°11' W 005°04'9 9.5
2014-Oct-15 03:33N 54°20' W 005°11'10 9.6
2014-Oct-15 02:34N 54°29' W 005°17'1010.3
2014-Oct-15 01:33N 54°38' W 005°24'1110.9
2014-Oct-15 00:33N 54°48' W 005°31'1110.7
2014-Oct-14 23:34N 54°58' W 005°39'2110.5
2014-Oct-14 21:33N 55°15' W 005°59'9 9.1
2014-Oct-14 20:33N 55°21' W 006°11'8 8.4
2014-Oct-14 19:33N 55°27' W 006°23'8 8.1
2014-Oct-14 18:33N 55°33' W 006°31'8 7.6
2014-Oct-14 17:33N 55°39' W 006°39'8 8.1
2014-Oct-14 16:33N 55°46' W 006°47'10 9.7
2014-Oct-14 15:33N 55°54' W 006°57'197 9.4
2014-Oct-13 18:34N 58°52' W 004°21'1111.4
2014-Oct-13 17:34N 58°58' W 004°02'1111.1
2014-Oct-13 16:34N 59°03' W 003°43'1110.9
2014-Oct-13 15:33N 59°08' W 003°24'1111.0
2014-Oct-13 14:33N 59°13' W 003°04'9 9.0
2014-Oct-13 13:33N 59°08' W 002°49'8 7.6
2014-Oct-13 12:33N 59°01' W 002°51'4 3.9
2014-Oct-13 11:31N 58°60' W 002°58'0 0.0
2014-Oct-13 10:31N 58°60' W 002°58'0 0.0
2014-Oct-13 09:31N 58°60' W 002°58'0 0.0
2014-Oct-13 08:31N 58°60' W 002°58'0 0.0
2014-Oct-13 07:31N 58°60' W 002°58'0 0.0
2014-Oct-13 06:31N 58°60' W 002°58'0 0.0
2014-Oct-13 05:28N 58°60' W 002°58'0 0.0
2014-Oct-13 04:31N 58°60' W 002°58'0 0.0
2014-Oct-13 03:31N 58°60' W 002°58'0 0.0
2014-Oct-13 02:28N 58°60' W 002°58'0 0.0
2014-Oct-13 01:33N 58°60' W 002°58'0 0.0
2014-Oct-13 00:33N 58°60' W 002°58'0 0.0
2014-Oct-12 23:33N 58°60' W 002°58'2 2.2
2014-Oct-12 22:33N 59°01' W 002°55'8213.6
2014-Oct-12 16:33N 57°47' W 001°50'1313.0
2014-Oct-12 15:33N 57°34' W 001°42'1212.4
2014-Oct-12 14:33N 57°22' W 001°46'5 0.6
2014-Oct-12 05:30N 57°18' W 001°51'1313.4
2014-Oct-12 04:33N 57°29' W 001°40'1313.2
2014-Oct-12 03:33N 57°42' W 001°33'86 3.6
2014-Oct-11 03:33N 59°02' W 002°31'1212.2
2014-Oct-11 02:33N 59°01' W 002°55'2 2.2
2014-Oct-11 01:33N 58°60' W 002°58'8 8.3
2014-Oct-11 00:34N 58°59' W 002°42'7213.8
2014-Oct-10 19:22N 57°52' W 001°54'1315.8
2014-Oct-10 18:34N 57°40' W 001°46'1616.1
2014-Oct-10 17:34N 57°24' W 001°45'10 0.8
2014-Oct-10 05:30N 57°15' W 001°53'1010.5
2014-Oct-10 04:33N 57°24' W 001°44'1211.7
2014-Oct-10 03:33N 57°35' W 001°40'1313.0
2014-Oct-10 02:33N 57°48' W 001°37'6 0.2
2014-Oct-09 00:34N 57°43' W 001°37'1212.0
2014-Oct-08 23:34N 57°31' W 001°40'1212.0
2014-Oct-08 22:33N 57°19' W 001°48'1 0.2
2014-Oct-08 15:34N 57°20' W 001°49'1313.4
2014-Oct-08 14:33N 57°34' W 001°44'1514.7
2014-Oct-08 13:33N 57°48' W 001°51'7515.0
2014-Oct-08 08:33N 58°59' W 002°38'1110.6
2014-Oct-08 07:32N 58°60' W 002°58'0 0.0
2014-Oct-08 06:32N 58°60' W 002°58'0 0.0
2014-Oct-08 05:32N 58°60' W 002°58'0 0.0
2014-Oct-08 04:34N 58°60' W 002°58'1 0.8
2014-Oct-08 03:34N 59°01' W 002°58'0 0.1
2014-Oct-08 02:31N 59°01' W 002°58'0 0.0
2014-Oct-08 01:31N 59°01' W 002°58'0 0.0
2014-Oct-08 00:34N 59°01' W 002°58'0 0.0
2014-Oct-07 23:31N 59°01' W 002°58'0 0.0
2014-Oct-07 22:31N 59°01' W 002°58'0 0.0
2014-Oct-07 21:31N 59°01' W 002°58'0 0.0
2014-Oct-07 20:31N 59°01' W 002°58'0 0.0
2014-Oct-07 19:31N 59°01' W 002°58'0 0.0
2014-Oct-07 18:31N 59°01' W 002°58'0 0.0
2014-Oct-07 17:33N 59°01' W 002°58'0 0.0
2014-Oct-07 16:33N 59°01' W 002°58'0 0.0
2014-Oct-07 15:33N 59°01' W 002°58'0 0.0
2014-Oct-07 14:33N 59°01' W 002°58'0 0.0
2014-Oct-07 13:33N 59°01' W 002°58'0 0.0
2014-Oct-07 12:33N 59°01' W 002°58'1 0.8
2014-Oct-07 11:34N 58°60' W 002°58'0 0.0
2014-Oct-07 10:31N 58°60' W 002°58'0 0.0
2014-Oct-07 09:31N 58°60' W 002°58'0 0.0
2014-Oct-07 08:34N 58°60' W 002°58'0 0.0
2014-Oct-07 07:31N 58°60' W 002°58'0 0.0
2014-Oct-07 06:34N 58°60' W 002°58'0 0.0
2014-Oct-07 05:34N 58°60' W 002°58'0 0.0
2014-Oct-07 04:34N 58°60' W 002°58'0 0.0
2014-Oct-07 03:34N 58°60' W 002°58'  

Dump ship's entire track history